Time;durP1;ratioP1;P1;durP2;ratioP2;P2;SDS_P1;SDS_P2;PMS_P1;PMS_P2;Temp;Humidity;BMP_temperature;BMP_pressure;BME280_temperature;BME280_humidity;BME280_pressure;Samples;Min_cycle;Max_cycle;Signal;HPM_P1;HPM_P2
2022/10/21 00:00:20;;;;;;;103.15;58.88;;;;;;;-144.47;100.00;61586.06;5000855;28;20451;-87
2022/10/21 00:02:46;;;;;;;103.85;59.67;;;;;;;-144.47;100.00;61586.06;4997193;28;20033;-87
2022/10/21 00:05:11;;;;;;;99.82;59.78;;;;;;;-144.47;100.00;61586.06;4977874;28;20041;-87
2022/10/21 00:07:37;;;;;;;110.88;63.38;;;;;;;-144.47;100.00;61586.06;4988477;28;20054;-86
2022/10/21 00:10:03;;;;;;;112.93;63.00;;;;;;;-144.47;100.00;61586.06;4997289;28;20038;-87
2022/10/21 00:12:29;;;;;;;109.82;61.63;;;;;;;-144.47;100.00;61586.06;5004486;28;20478;-89
2022/10/21 00:14:55;;;;;;;112.65;63.05;;;;;;;-144.47;100.00;61586.06;4979280;28;20030;-87
2022/10/21 00:17:20;;;;;;;112.97;62.22;;;;;;;-144.47;100.00;61586.06;5008220;28;20069;-87
2022/10/21 00:19:46;;;;;;;115.75;64.03;;;;;;;-144.47;100.00;61586.06;4998351;28;20057;-87
2022/10/21 00:22:11;;;;;;;114.13;61.92;;;;;;;-144.47;100.00;61586.06;4983928;28;20038;-89
2022/10/21 00:24:37;;;;;;;114.38;63.40;;;;;;;-144.47;100.00;61586.06;5001028;28;20172;-87
2022/10/21 00:27:02;;;;;;;114.80;63.85;;;;;;;-144.47;100.00;61586.06;4998141;28;20034;-88
2022/10/21 00:29:28;;;;;;;110.65;62.92;;;;;;;-144.47;100.00;61586.06;4983770;28;20491;-87
2022/10/21 00:31:54;;;;;;;119.35;66.55;;;;;;;-144.47;100.00;61586.06;5000935;28;20364;-87
2022/10/21 00:34:20;;;;;;;112.45;64.63;;;;;;;-144.47;100.00;61586.06;5005618;28;20034;-89
2022/10/21 00:36:46;;;;;;;128.05;67.60;;;;;;;-144.47;100.00;61586.06;5018203;28;20030;-86
2022/10/21 00:39:11;;;;;;;126.47;67.32;;;;;;;-144.47;100.00;61586.06;5009558;28;20045;-87
2022/10/21 00:41:37;;;;;;;109.07;62.10;;;;;;;-144.47;100.00;61586.06;5000055;28;20826;-86
2022/10/21 00:44:05;;;;;;;113.20;62.15;;;;;;;-144.47;100.00;61586.06;5000153;28;20046;-87
2022/10/21 00:46:34;;;;;;;121.55;65.55;;;;;;;-144.47;100.00;61586.06;4986359;28;20038;-85
2022/10/21 00:49:04;;;;;;;121.97;63.20;;;;;;;-144.47;100.00;61586.06;4995807;28;20387;-85
2022/10/21 00:51:30;;;;;;;119.78;62.15;;;;;;;-144.47;100.00;61586.06;4992379;28;20038;-85
2022/10/21 00:53:57;;;;;;;107.63;60.83;;;;;;;-144.47;100.00;61586.06;4993840;28;20026;-86
2022/10/21 00:56:27;;;;;;;118.53;64.18;;;;;;;-144.47;100.00;61586.06;5009020;28;20061;-85
2022/10/21 00:58:56;;;;;;;122.20;65.10;;;;;;;-144.47;100.00;61586.06;5013481;28;20048;-84
2022/10/21 01:01:22;;;;;;;112.63;61.47;;;;;;;-144.47;100.00;61586.06;5013118;28;20124;-85
2022/10/21 01:03:49;;;;;;;113.60;62.95;;;;;;;-144.47;100.00;61586.06;5013328;28;20032;-84
2022/10/21 01:06:15;;;;;;;107.88;62.80;;;;;;;-144.47;100.00;61586.06;5011957;28;20808;-86
2022/10/21 01:08:42;;;;;;;111.68;64.30;;;;;;;-144.47;100.00;61586.06;5012822;28;20128;-85
2022/10/21 01:11:13;;;;;;;114.05;63.08;;;;;;;-144.47;100.00;61586.06;5012924;28;20084;-86
2022/10/21 01:13:51;;;;;;;115.07;63.75;;;;;;;-144.47;100.00;61586.06;5013117;28;20104;-86
2022/10/21 01:16:35;;;;;;;112.50;63.83;;;;;;;-144.47;100.00;61586.06;5009079;28;20038;-86
2022/10/21 01:19:34;;;;;;;112.00;63.05;;;;;;;-144.47;100.00;61586.06;5011664;28;20084;-86
2022/10/21 01:22:31;;;;;;;116.63;62.75;;;;;;;-144.47;100.00;61586.06;5011160;28;20034;-86
2022/10/21 01:25:18;;;;;;;116.72;64.95;;;;;;;-144.47;100.00;61586.06;5010514;28;20030;-86
2022/10/21 01:28:17;;;;;;;114.97;63.55;;;;;;;-144.47;100.00;61586.06;5010304;28;20052;-87
2022/10/21 01:30:55;;;;;;;122.85;67.25;;;;;;;-144.47;100.00;61586.06;5016153;28;20118;-86
2022/10/21 01:33:38;;;;;;;125.80;67.45;;;;;;;-144.47;100.00;61586.06;5009114;28;20030;-86
2022/10/21 01:36:28;;;;;;;121.55;66.75;;;;;;;-144.47;100.00;61586.06;5011793;28;20030;-85
2022/10/21 01:39:12;;;;;;;120.60;64.82;;;;;;;-144.47;100.00;61586.06;5010309;28;20157;-85
2022/10/21 01:42:01;;;;;;;114.07;63.50;;;;;;;-144.47;100.00;61586.06;5001122;28;20042;-86
2022/10/21 01:44:42;;;;;;;116.70;65.28;;;;;;;-144.47;100.00;61586.06;5010592;28;20064;-83
2022/10/21 01:47:16;;;;;;;114.32;64.95;;;;;;;-144.47;100.00;61586.06;5012272;28;20034;-86
2022/10/21 01:49:52;;;;;;;119.55;65.95;;;;;;;-144.47;100.00;61586.06;5012382;28;20060;-87
2022/10/21 01:52:18;;;;;;;111.63;63.47;;;;;;;-144.47;100.00;61586.06;5003108;28;20038;-87
2022/10/21 01:54:49;;;;;;;122.05;66.78;;;;;;;-144.47;100.00;61586.06;5008222;28;20046;-87
2022/10/21 01:57:20;;;;;;;116.82;64.78;;;;;;;-144.47;100.00;61586.06;5009221;28;20079;-87
2022/10/21 01:59:47;;;;;;;119.22;66.80;;;;;;;-144.47;100.00;61586.06;5009491;28;20116;-88
2022/10/21 02:02:14;;;;;;;113.88;64.80;;;;;;;-144.47;100.00;61586.06;5015930;28;20093;-88
2022/10/21 02:04:43;;;;;;;113.25;63.05;;;;;;;-144.47;100.00;61586.06;5019404;28;20022;-88
2022/10/21 02:07:09;;;;;;;115.43;63.33;;;;;;;-144.47;100.00;61586.06;5018277;28;20048;-87
2022/10/21 02:09:34;;;;;;;112.60;62.85;;;;;;;-144.47;100.00;61586.06;5012759;28;20125;-88
2022/10/21 02:12:03;;;;;;;118.28;65.18;;;;;;;-144.47;100.00;61586.06;5011859;28;20026;-83
2022/10/21 02:14:35;;;;;;;113.75;63.78;;;;;;;-144.47;100.00;61586.06;5003947;28;20073;-89
2022/10/21 02:17:01;;;;;;;113.47;64.10;;;;;;;-144.47;100.00;61586.06;5012647;28;20489;-88
2022/10/21 02:19:28;;;;;;;113.65;63.83;;;;;;;-144.47;100.00;61586.06;5012835;28;20062;-88
2022/10/21 02:21:57;;;;;;;120.88;64.97;;;;;;;-144.47;100.00;61586.06;5016367;28;20038;-85
2022/10/21 02:24:45;;;;;;;119.50;64.10;;;;;;;-144.47;100.00;61586.06;5013240;28;20136;-85
2022/10/21 02:27:11;;;;;;;112.97;62.35;;;;;;;-144.47;100.00;61586.06;5000531;28;20038;-86
2022/10/21 02:29:40;;;;;;;112.53;61.85;;;;;;;-144.47;100.00;61586.06;4984473;28;20046;-87
2022/10/21 02:32:24;;;;;;;122.70;63.97;;;;;;;-144.47;100.00;61586.06;5011944;28;20029;-87
2022/10/21 02:35:01;;;;;;;111.13;62.38;;;;;;;-144.47;100.00;61586.06;5011383;28;20109;-87
2022/10/21 02:37:35;;;;;;;112.05;65.30;;;;;;;-144.47;100.00;61586.06;5012996;28;20117;-87
2022/10/21 02:40:05;;;;;;;114.63;62.58;;;;;;;-144.47;100.00;61586.06;5011125;28;20141;-87
2022/10/21 02:42:35;;;;;;;122.72;64.43;;;;;;;-144.47;100.00;61586.06;5013234;28;20061;-87
2022/10/21 02:45:01;;;;;;;116.33;63.07;;;;;;;-144.47;100.00;61586.06;5013535;28;20026;-89
2022/10/21 02:47:28;;;;;;;117.05;62.97;;;;;;;-144.47;100.00;61586.06;5013440;28;20034;-88
2022/10/21 02:49:54;;;;;;;120.63;64.22;;;;;;;-144.47;100.00;61586.06;5011566;28;20049;-89
2022/10/21 02:52:20;;;;;;;117.07;64.25;;;;;;;-144.47;100.00;61586.06;5011962;28;20486;-87
2022/10/21 02:54:45;;;;;;;108.50;63.17;;;;;;;-144.47;100.00;61586.06;5012064;28;20477;-88
2022/10/21 02:57:11;;;;;;;116.18;63.10;;;;;;;-144.47;100.00;61586.06;5014708;23;20141;-77
2022/10/21 02:59:36;;;;;;;115.03;63.70;;;;;;;-144.47;100.00;61586.06;4994790;28;20041;-77
2022/10/21 03:02:03;;;;;;;117.65;64.80;;;;;;;-144.47;100.00;61586.06;4994666;28;20033;-77
2022/10/21 03:04:28;;;;;;;119.97;65.60;;;;;;;-144.47;100.00;61586.06;4994781;28;20368;-77
2022/10/21 03:06:54;;;;;;;120.15;64.47;;;;;;;-144.47;100.00;61586.06;4994682;28;20034;-77
2022/10/21 03:09:20;;;;;;;117.03;64.13;;;;;;;-144.47;100.00;61586.06;4993643;28;20164;-77
2022/10/21 03:11:45;;;;;;;121.82;65.68;;;;;;;-144.47;100.00;61586.06;4994493;28;20061;-77
2022/10/21 03:14:11;;;;;;;118.63;65.93;;;;;;;-144.47;100.00;61586.06;4994739;28;20088;-76
2022/10/21 03:16:37;;;;;;;117.82;65.22;;;;;;;-144.47;100.00;61586.06;4994038;28;20116;-78
2022/10/21 03:19:02;;;;;;;117.75;65.35;;;;;;;-144.47;100.00;61586.06;4993353;28;20035;-78
2022/10/21 03:21:28;;;;;;;127.32;69.70;;;;;;;-144.47;100.00;61586.06;4994103;28;20117;-75
2022/10/21 03:23:53;;;;;;;118.28;67.35;;;;;;;-144.47;100.00;61586.06;4994621;28;20038;-78
2022/10/21 03:26:19;;;;;;;126.20;69.10;;;;;;;-144.47;100.00;61586.06;4994175;28;20039;-78
2022/10/21 03:28:45;;;;;;;132.70;69.63;;;;;;;-144.47;100.00;61586.06;4994875;28;20038;-78
2022/10/21 03:31:10;;;;;;;131.48;71.50;;;;;;;-144.47;100.00;61586.06;4994079;28;20034;-77
2022/10/21 03:33:36;;;;;;;129.70;73.13;;;;;;;-144.47;100.00;61586.06;4994828;28;20031;-78
2022/10/21 03:36:02;;;;;;;135.77;74.40;;;;;;;-144.47;100.00;61586.06;4994659;28;20077;-77
2022/10/21 03:38:27;;;;;;;146.02;74.55;;;;;;;-144.47;100.00;61586.06;4994848;28;20109;-78
2022/10/21 03:40:53;;;;;;;137.82;74.70;;;;;;;-144.47;100.00;61586.06;4995583;28;20038;-78
2022/10/21 03:43:18;;;;;;;145.65;76.82;;;;;;;-144.47;100.00;61586.06;4986835;28;20077;-78
2022/10/21 03:45:45;;;;;;;145.43;77.95;;;;;;;-144.47;100.00;61586.06;4994324;28;20053;-78
2022/10/21 03:48:11;;;;;;;143.77;76.50;;;;;;;-144.47;100.00;61586.06;4994538;28;20031;-78
2022/10/21 03:50:36;;;;;;;145.88;78.55;;;;;;;-144.47;100.00;61586.06;4994527;28;20034;-77
2022/10/21 03:53:02;;;;;;;151.82;79.07;;;;;;;-144.47;100.00;61586.06;4992983;28;20030;-78
2022/10/21 03:55:28;;;;;;;152.00;82.22;;;;;;;-144.47;100.00;61586.06;4993159;28;20030;-76
2022/10/21 03:57:53;;;;;;;157.15;79.85;;;;;;;-144.47;100.00;61586.06;4997746;28;20106;-78
2022/10/21 04:00:19;;;;;;;154.15;79.60;;;;;;;-144.47;100.00;61586.06;4999090;28;20022;-77
2022/10/21 04:02:45;;;;;;;152.63;80.55;;;;;;;-144.47;100.00;61586.06;4998856;28;20046;-78
2022/10/21 04:05:11;;;;;;;156.23;80.97;;;;;;;-144.47;100.00;61586.06;4998349;28;20117;-77
2022/10/21 04:07:37;;;;;;;143.77;77.75;;;;;;;-144.47;100.00;61586.06;4998499;28;20026;-77
2022/10/21 04:10:04;;;;;;;148.73;77.90;;;;;;;-144.47;100.00;61586.06;4998476;28;20045;-78
2022/10/21 04:12:30;;;;;;;149.05;78.70;;;;;;;-144.47;100.00;61586.06;4998758;28;20037;-77
2022/10/21 04:14:55;;;;;;;150.23;78.80;;;;;;;-144.47;100.00;61586.06;4997665;28;20113;-78
2022/10/21 04:17:21;;;;;;;148.70;79.05;;;;;;;-144.47;100.00;61586.06;4998042;28;20030;-78
2022/10/21 04:19:46;;;;;;;145.80;79.10;;;;;;;-144.47;100.00;61586.06;4997983;28;20038;-78
2022/10/21 04:22:12;;;;;;;148.98;81.25;;;;;;;-144.47;100.00;61586.06;4986692;28;20092;-77
2022/10/21 04:24:37;;;;;;;150.40;79.07;;;;;;;-144.47;100.00;61586.06;4998028;28;20033;-77
2022/10/21 04:27:03;;;;;;;155.05;82.13;;;;;;;-144.47;100.00;61586.06;4995912;28;20105;-77
2022/10/21 04:29:28;;;;;;;136.40;75.13;;;;;;;-144.47;100.00;61586.06;4994514;28;20038;-76
2022/10/21 04:31:54;;;;;;;133.75;70.95;;;;;;;-144.47;100.00;61586.06;4994647;28;20027;-77
2022/10/21 04:34:20;;;;;;;131.35;69.63;;;;;;;-144.47;100.00;61586.06;4994193;28;20038;-77
2022/10/21 04:36:45;;;;;;;130.15;70.72;;;;;;;-144.47;100.00;61586.06;4994595;28;20027;-77
2022/10/21 04:39:11;;;;;;;134.55;70.55;;;;;;;-144.47;100.00;61586.06;4994127;28;20084;-77
2022/10/21 04:41:37;;;;;;;139.18;72.07;;;;;;;-144.47;100.00;61586.06;4994336;28;20124;-77
2022/10/21 04:44:03;;;;;;;133.05;71.65;;;;;;;-144.47;100.00;61586.06;4994471;28;20034;-77
2022/10/21 04:46:29;;;;;;;129.88;70.22;;;;;;;-144.47;100.00;61586.06;4994477;28;20601;-78
2022/10/21 04:48:54;;;;;;;137.02;71.82;;;;;;;-144.47;100.00;61586.06;4994525;28;20121;-77
2022/10/21 04:51:20;;;;;;;148.88;77.40;;;;;;;-144.47;100.00;61586.06;4994084;28;20031;-78
2022/10/21 04:53:45;;;;;;;145.07;77.10;;;;;;;-144.47;100.00;61586.06;4994408;28;20026;-78
2022/10/21 04:56:11;;;;;;;148.70;79.88;;;;;;;-144.47;100.00;61586.06;4982904;28;20062;-77
2022/10/21 04:58:37;;;;;;;152.23;81.55;;;;;;;-144.47;100.00;61586.06;4994091;28;20030;-77
2022/10/21 05:01:03;;;;;;;148.60;80.80;;;;;;;-144.47;100.00;61586.06;4993383;28;20034;-77
2022/10/21 05:03:29;;;;;;;151.55;78.47;;;;;;;-144.47;100.00;61586.06;4994143;28;20037;-76
2022/10/21 05:05:55;;;;;;;150.10;79.15;;;;;;;-144.47;100.00;61586.06;4993755;28;20091;-77
2022/10/21 05:08:21;;;;;;;150.35;81.70;;;;;;;-144.47;100.00;61586.06;4983876;28;20027;-82
2022/10/21 05:10:47;;;;;;;150.43;83.95;;;;;;;-144.47;100.00;61586.06;4993711;28;20050;-82
2022/10/21 05:13:13;;;;;;;155.73;81.78;;;;;;;-144.47;100.00;61586.06;4993581;28;20038;-81
2022/10/21 05:15:38;;;;;;;149.93;81.75;;;;;;;-144.47;100.00;61586.06;4983523;28;21335;-80
2022/10/21 05:18:04;;;;;;;154.85;80.95;;;;;;;-144.47;100.00;61586.06;4993970;28;20049;-81
2022/10/21 05:20:29;;;;;;;158.60;84.45;;;;;;;-144.47;100.00;61586.06;4993831;28;20126;-80
2022/10/21 05:22:55;;;;;;;144.05;80.47;;;;;;;-144.47;100.00;61586.06;4992536;28;20034;-79
2022/10/21 05:25:21;;;;;;;149.68;81.97;;;;;;;-144.47;100.00;61586.06;4981127;28;20022;-78
2022/10/21 05:27:47;;;;;;;154.82;81.40;;;;;;;-144.47;100.00;61586.06;4993794;28;20064;-76
2022/10/21 05:30:13;;;;;;;153.77;78.15;;;;;;;-144.47;100.00;61586.06;4987281;28;20037;-78
2022/10/21 05:32:40;;;;;;;146.10;80.32;;;;;;;-144.47;100.00;61586.06;4992553;28;20030;-78
2022/10/21 05:35:06;;;;;;;152.07;80.78;;;;;;;-144.47;100.00;61586.06;4985543;28;20475;-77
2022/10/21 05:37:31;;;;;;;141.80;79.35;;;;;;;-144.47;100.00;61586.06;4992564;28;20058;-77
2022/10/21 05:39:57;;;;;;;146.90;77.82;;;;;;;-144.47;100.00;61586.06;4969352;28;20533;-77
2022/10/21 05:42:23;;;;;;;140.52;76.22;;;;;;;-144.47;100.00;61586.06;4991835;28;20113;-74
2022/10/21 05:44:49;;;;;;;141.00;76.47;;;;;;;-144.47;100.00;61586.06;4992941;28;20035;-76
2022/10/21 05:47:15;;;;;;;140.07;75.55;;;;;;;-144.47;100.00;61586.06;4992090;28;20546;-77
2022/10/21 05:49:42;;;;;;;137.38;73.97;;;;;;;-144.47;100.00;61586.06;4983916;28;20035;-76
2022/10/21 05:52:08;;;;;;;137.18;75.20;;;;;;;-144.47;100.00;61586.06;4993151;28;20034;-78
2022/10/21 05:54:33;;;;;;;137.90;74.95;;;;;;;-144.47;100.00;61586.06;4991793;28;20022;-77
2022/10/21 05:57:01;;;;;;;138.48;74.50;;;;;;;-144.47;100.00;61586.06;4992733;28;20034;-76
2022/10/21 05:59:27;;;;;;;131.35;74.10;;;;;;;-144.47;100.00;61586.06;4992288;28;20034;-78
2022/10/21 06:01:53;;;;;;;137.85;75.32;;;;;;;-144.47;100.00;61586.06;4993186;28;20391;-80
2022/10/21 06:04:19;;;;;;;131.50;71.20;;;;;;;-144.47;100.00;61586.06;4992981;28;20076;-80
2022/10/21 06:06:44;;;;;;;127.95;68.50;;;;;;;-144.47;100.00;61586.06;4989030;28;20041;-80
2022/10/21 06:09:10;;;;;;;132.05;72.07;;;;;;;-144.47;100.00;61586.06;4991208;28;20037;-81
2022/10/21 06:11:35;;;;;;;141.10;74.45;;;;;;;-144.47;100.00;61586.06;4992587;28;20053;-80
2022/10/21 06:14:01;;;;;;;140.00;76.82;;;;;;;-144.47;100.00;61586.06;4992264;28;20030;-81
2022/10/21 06:16:27;;;;;;;142.98;78.82;;;;;;;-144.47;100.00;61586.06;4992370;28;20113;-81
2022/10/21 06:18:52;;;;;;;151.15;78.38;;;;;;;-144.47;100.00;61586.06;4991347;28;20038;-80
2022/10/21 06:21:18;;;;;;;147.10;79.65;;;;;;;-144.47;100.00;61586.06;4992071;28;20038;-80
2022/10/21 06:23:43;;;;;;;146.88;79.32;;;;;;;-144.47;100.00;61586.06;4991745;28;20030;-80
2022/10/21 06:26:14;;;;;;;142.82;77.85;;;;;;;-144.47;100.00;61586.06;4991816;28;20073;-80
2022/10/21 06:28:42;;;;;;;145.80;78.63;;;;;;;-144.47;100.00;61586.06;4992680;28;20394;-80
2022/10/21 06:31:11;;;;;;;144.98;77.72;;;;;;;-144.47;100.00;61586.06;4991738;28;20457;-79
2022/10/21 06:33:36;;;;;;;147.40;76.28;;;;;;;-144.47;100.00;61586.06;4991911;28;20419;-80
2022/10/21 06:36:02;;;;;;;149.75;78.10;;;;;;;-144.47;100.00;61586.06;4991683;28;20038;-80
2022/10/21 06:38:28;;;;;;;149.68;79.88;;;;;;;-144.47;100.00;61586.06;4992228;28;20497;-81
2022/10/21 06:41:05;;;;;;;143.68;78.88;;;;;;;-144.47;100.00;61586.06;4992223;28;20065;-81
2022/10/21 06:43:31;;;;;;;159.88;80.82;;;;;;;-144.47;100.00;61586.06;4990509;28;20085;-80
2022/10/21 06:46:05;;;;;;;154.00;81.53;;;;;;;-144.47;100.00;61586.06;4991453;28;20046;-79
2022/10/21 06:48:32;;;;;;;156.02;82.97;;;;;;;-144.47;100.00;61586.06;4990344;28;20104;-79
2022/10/21 06:51:00;;;;;;;159.02;80.20;;;;;;;-144.47;100.00;61586.06;4992101;28;20053;-80
2022/10/21 06:53:26;;;;;;;149.77;79.75;;;;;;;-144.47;100.00;61586.06;4992025;28;20026;-81
2022/10/21 06:56:01;;;;;;;148.98;76.25;;;;;;;-144.47;100.00;61586.06;4983695;28;20038;-80
2022/10/21 06:58:27;;;;;;;132.52;68.88;;;;;;;-144.47;100.00;61586.06;4991766;28;20126;-80
2022/10/21 07:00:52;;;;;;;138.05;70.70;;;;;;;-144.47;100.00;61586.06;4991890;28;20038;-81
2022/10/21 07:03:18;;;;;;;123.00;67.65;;;;;;;-144.47;100.00;61586.06;4991372;28;20034;-80
2022/10/21 07:05:43;;;;;;;130.35;67.90;;;;;;;-144.47;100.00;61586.06;4990916;28;20164;-79
2022/10/21 07:08:09;;;;;;;112.65;65.00;;;;;;;-144.47;100.00;61586.06;4991507;28;20038;-80
2022/10/21 07:10:34;;;;;;;125.70;69.65;;;;;;;-144.47;100.00;61586.06;4991941;28;20037;-80
2022/10/21 07:13:00;;;;;;;132.10;70.47;;;;;;;-144.47;100.00;61586.06;4982042;28;20113;-81
2022/10/21 07:15:25;;;;;;;140.45;73.80;;;;;;;-144.47;100.00;61586.06;4991544;28;20031;-80
2022/10/21 07:17:51;;;;;;;135.77;72.18;;;;;;;-144.47;100.00;61586.06;4991233;28;20068;-80
2022/10/21 07:20:17;;;;;;;135.88;72.93;;;;;;;-144.47;100.00;61586.06;4990842;28;20141;-83
2022/10/21 07:22:42;;;;;;;131.18;74.25;;;;;;;-144.47;100.00;61586.06;4992753;28;20033;-80
2022/10/21 07:25:08;;;;;;;139.52;75.18;;;;;;;-144.47;100.00;61586.06;4991803;28;20038;-81
2022/10/21 07:27:34;;;;;;;143.85;74.00;;;;;;;-144.47;100.00;61586.06;4991223;28;20415;-81
2022/10/21 07:29:59;;;;;;;146.95;78.65;;;;;;;-144.47;100.00;61586.06;4990411;28;20034;-81
2022/10/21 07:32:25;;;;;;;147.85;79.93;;;;;;;-144.47;100.00;61586.06;4991619;28;20065;-81
2022/10/21 07:34:50;;;;;;;148.30;77.25;;;;;;;-144.47;100.00;61586.06;4991450;28;20035;-81
2022/10/21 07:37:16;;;;;;;147.63;81.22;;;;;;;-144.47;100.00;61586.06;4991238;28;20483;-80
2022/10/21 07:39:41;;;;;;;148.70;77.22;;;;;;;-144.47;100.00;61586.06;4991556;28;20061;-80
2022/10/21 07:42:08;;;;;;;145.13;77.55;;;;;;;-144.47;100.00;61586.06;4991548;28;20038;-81
2022/10/21 07:44:34;;;;;;;160.93;80.68;;;;;;;-144.47;100.00;61586.06;4990246;28;20243;-81
2022/10/21 07:46:59;;;;;;;162.95;83.63;;;;;;;-144.47;100.00;61586.06;4991088;28;20038;-80
2022/10/21 07:49:25;;;;;;;154.15;83.63;;;;;;;-144.47;100.00;61586.06;4992306;28;20034;-81
2022/10/21 07:51:52;;;;;;;161.30;84.38;;;;;;;-144.47;100.00;61586.06;4991892;28;20041;-81
2022/10/21 07:54:18;;;;;;;155.13;84.68;;;;;;;-144.47;100.00;61586.06;4993788;28;20030;-81
2022/10/21 07:56:47;;;;;;;152.35;84.03;;;;;;;-144.47;100.00;61586.06;4994525;28;20057;-79
2022/10/21 07:59:14;;;;;;;158.15;83.95;;;;;;;-144.47;100.00;61586.06;4992886;28;20041;-79
2022/10/21 08:01:42;;;;;;;153.68;82.20;;;;;;;-144.47;100.00;61586.06;4982958;28;20043;-81
2022/10/21 08:04:10;;;;;;;154.65;84.75;;;;;;;-144.47;100.00;61586.06;4989556;28;20368;-81
2022/10/21 08:06:35;;;;;;;155.35;82.93;;;;;;;-144.47;100.00;61586.06;4978766;28;20100;-80
2022/10/21 08:09:01;;;;;;;150.45;81.40;;;;;;;-144.47;100.00;61586.06;4981048;28;20604;-80
2022/10/21 08:11:30;;;;;;;148.55;80.88;;;;;;;-144.47;100.00;61586.06;4981258;28;20039;-80
2022/10/21 08:13:56;;;;;;;148.20;80.85;;;;;;;-144.47;100.00;61586.06;4983176;28;20022;-81
2022/10/21 08:16:22;;;;;;;150.80;82.43;;;;;;;-144.47;100.00;61586.06;4985917;28;20037;-81
2022/10/21 08:18:48;;;;;;;147.75;80.30;;;;;;;-144.47;100.00;61586.06;4987234;28;20027;-81
2022/10/21 08:21:14;;;;;;;148.38;80.60;;;;;;;-144.47;100.00;61586.06;4979356;28;20030;-80
2022/10/21 08:23:40;;;;;;;145.38;80.28;;;;;;;-144.47;100.00;61586.06;4986844;28;20502;-79
2022/10/21 08:26:11;;;;;;;143.55;79.80;;;;;;;-144.47;100.00;61586.06;4975733;28;20055;-78
2022/10/21 08:28:39;;;;;;;144.93;79.53;;;;;;;-144.47;100.00;61586.06;4978605;28;20038;-80
2022/10/21 08:31:07;;;;;;;137.38;77.18;;;;;;;-144.47;100.00;61586.06;4963330;28;20035;-82
2022/10/21 08:33:34;;;;;;;134.15;76.55;;;;;;;-144.47;100.00;61586.06;4975132;28;20033;-81
2022/10/21 08:36:07;;;;;;;144.05;79.90;;;;;;;-144.47;100.00;61586.06;4975895;28;20042;-78
2022/10/21 08:38:33;;;;;;;137.05;79.88;;;;;;;-144.47;100.00;61586.06;4974677;28;20076;-80
2022/10/21 08:41:00;;;;;;;136.73;74.38;;;;;;;-144.47;100.00;61586.06;4976185;28;20153;-82
2022/10/21 08:43:30;;;;;;;132.20;77.45;;;;;;;-144.47;100.00;61586.06;4978797;28;20027;-78
2022/10/21 08:46:03;;;;;;;129.02;73.65;;;;;;;-144.47;100.00;61586.06;4979943;28;20055;-80
2022/10/21 08:49:03;;;;;;;131.60;76.78;;;;;;;-144.47;100.00;61586.06;4982757;28;20080;-82
2022/10/21 08:51:36;;;;;;;138.95;76.68;;;;;;;-144.47;100.00;61586.06;4972131;28;20072;-80
2022/10/21 08:54:07;;;;;;;136.48;76.55;;;;;;;-144.47;100.00;61586.06;4960094;28;20034;-82
2022/10/21 08:56:33;;;;;;;138.70;77.07;;;;;;;-144.47;100.00;61586.06;4992308;28;20041;-81
2022/10/21 08:58:59;;;;;;;148.75;80.80;;;;;;;-144.47;100.00;61586.06;4987150;28;20032;-81
2022/10/21 09:01:45;;;;;;;144.27;78.13;;;;;;;-144.47;100.00;61586.06;4993640;28;20348;-81
2022/10/21 09:04:22;;;;;;;144.18;78.97;;;;;;;-144.47;100.00;61586.06;4992744;28;20058;-81
2022/10/21 09:07:44;;;;;;;142.30;79.82;;;;;;;-144.47;100.00;61586.06;4990047;28;20037;-81
2022/10/21 09:10:36;;;;;;;140.55;79.53;;;;;;;-144.47;100.00;61586.06;4966185;28;20053;-81
2022/10/21 09:13:16;;;;;;;142.18;80.30;;;;;;;-144.47;100.00;61586.06;4970225;28;20123;-81
2022/10/21 09:15:45;;;;;;;153.15;80.90;;;;;;;-144.47;100.00;61586.06;4993635;28;20030;-81
2022/10/21 09:18:10;;;;;;;134.70;81.38;;;;;;;-144.47;100.00;61586.06;4992716;28;20093;-80
2022/10/21 09:20:45;;;;;;;144.52;80.85;;;;;;;-144.47;100.00;61586.06;4984675;28;20479;-80
2022/10/21 09:23:47;;;;;;;132.52;80.47;;;;;;;-144.47;100.00;61586.06;4992651;28;20046;-80
2022/10/21 09:26:31;;;;;;;135.40;81.45;;;;;;;-144.47;100.00;61586.06;4992457;28;20030;-80
2022/10/21 09:29:01;;;;;;;138.77;80.80;;;;;;;-144.47;100.00;61586.06;4990092;28;20026;-80
2022/10/21 09:31:28;;;;;;;134.10;78.95;;;;;;;-144.47;100.00;61586.06;4992904;28;20038;-80
2022/10/21 09:34:02;;;;;;;133.43;78.78;;;;;;;-144.47;100.00;61586.06;4992166;28;20037;-80
2022/10/21 09:36:46;;;;;;;133.48;81.00;;;;;;;-144.47;100.00;61586.06;4992707;28;20030;-82
2022/10/21 09:39:17;;;;;;;127.82;78.47;;;;;;;-144.47;100.00;61586.06;4992435;28;20030;-81
2022/10/21 09:41:48;;;;;;;135.80;80.05;;;;;;;-144.47;100.00;61586.06;4983309;28;20034;-82
2022/10/21 09:44:19;;;;;;;131.07;81.07;;;;;;;-144.47;100.00;61586.06;4991914;28;20057;-82
2022/10/21 09:46:46;;;;;;;136.65;78.13;;;;;;;-144.47;100.00;61586.06;4992230;28;20510;-82
2022/10/21 09:49:29;;;;;;;130.55;78.90;;;;;;;-144.47;100.00;61586.06;4982499;28;20054;-81
2022/10/21 09:52:01;;;;;;;130.43;78.22;;;;;;;-144.47;100.00;61586.06;4989723;28;20089;-82
2022/10/21 09:54:34;;;;;;;131.50;78.03;;;;;;;-144.47;100.00;61586.06;4991437;28;20109;-82
2022/10/21 09:57:30;;;;;;;128.55;78.75;;;;;;;-144.47;100.00;61586.06;4991852;28;20479;-82
2022/10/21 10:00:01;;;;;;;137.23;81.55;;;;;;;-144.47;100.00;61586.06;4988239;28;20035;-82
2022/10/21 10:02:36;;;;;;;130.10;79.30;;;;;;;-144.47;100.00;61586.06;4992269;28;20037;-81
2022/10/21 10:05:35;;;;;;;131.43;78.32;;;;;;;-144.47;100.00;61586.06;4991579;28;20534;-82
2022/10/21 10:08:25;;;;;;;134.07;80.20;;;;;;;-144.47;100.00;61586.06;4989940;28;20460;-82
2022/10/21 10:11:01;;;;;;;135.75;79.35;;;;;;;-144.47;100.00;61586.06;4990159;28;20026;-82
2022/10/21 10:13:27;;;;;;;127.93;76.90;;;;;;;-144.47;100.00;61586.06;4992000;28;20525;-82
2022/10/21 10:15:53;;;;;;;135.63;78.60;;;;;;;-144.47;100.00;61586.06;4992045;28;20109;-82
2022/10/21 10:18:23;;;;;;;132.70;78.28;;;;;;;-144.47;100.00;61586.06;4984646;28;20149;-81
2022/10/21 10:21:09;;;;;;;131.93;79.57;;;;;;;-144.47;100.00;61586.06;4956530;28;20031;-81
2022/10/21 10:24:04;;;;;;;128.48;78.50;;;;;;;-144.47;100.00;61586.06;4990803;28;20030;-81
2022/10/21 10:26:33;;;;;;;139.43;76.35;;;;;;;-144.47;100.00;61586.06;4969509;28;20073;-80
2022/10/21 10:29:17;;;;;;;133.02;76.55;;;;;;;-144.47;100.00;61586.06;4991146;28;20521;-82
2022/10/21 10:31:48;;;;;;;132.43;74.57;;;;;;;-144.47;100.00;61586.06;4991829;28;20089;-81
2022/10/21 10:34:21;;;;;;;124.05;73.68;;;;;;;-144.47;100.00;61586.06;4991113;28;20073;-81
2022/10/21 10:36:47;;;;;;;132.70;75.43;;;;;;;-144.47;100.00;61586.06;4991646;28;20041;-81
2022/10/21 10:39:22;;;;;;;128.07;71.43;;;;;;;-144.47;100.00;61586.06;4991146;28;20458;-81
2022/10/21 10:41:50;;;;;;;131.60;73.65;;;;;;;-144.47;100.00;61586.06;4991670;28;20030;-81
2022/10/21 10:44:31;;;;;;;130.40;76.70;;;;;;;-144.47;100.00;61586.06;4987011;28;20474;-81
2022/10/21 10:47:01;;;;;;;138.70;76.65;;;;;;;-144.47;100.00;61586.06;4989208;28;20026;-80
2022/10/21 10:49:35;;;;;;;132.77;77.15;;;;;;;-144.47;100.00;61586.06;4980008;28;20506;-83
2022/10/21 10:52:04;;;;;;;134.32;77.22;;;;;;;-144.47;100.00;61586.06;4991246;28;20109;-83
2022/10/21 10:54:30;;;;;;;135.48;78.65;;;;;;;-144.47;100.00;61586.06;4983302;28;20513;-80
2022/10/21 10:57:01;;;;;;;134.18;76.00;;;;;;;-144.47;100.00;61586.06;4990856;28;20046;-81